createdAt,value
2019-05-05T00:01:51.648Z,99949.69
2019-05-05T00:03:34.507Z,99961.45
2019-05-05T00:05:24.642Z,99957.43
2019-05-05T00:07:01.280Z,99962.27
2019-05-05T00:08:36.804Z,99963.05
2019-05-05T00:10:15.111Z,99963.56
2019-05-05T00:11:54.639Z,99964.41
2019-05-05T00:13:34.699Z,99957.58
2019-05-05T00:15:19.144Z,99968.20
2019-05-05T00:17:14.464Z,99962.19
2019-05-05T00:18:50.792Z,99962.42
2019-05-05T00:20:26.304Z,99956.29
2019-05-05T00:22:01.812Z,99959.33
2019-05-05T00:23:37.320Z,99964.25
2019-05-05T00:25:14.311Z,99959.33
2019-05-05T00:26:49.935Z,99952.50
2019-05-05T00:28:25.487Z,99959.33
2019-05-05T00:30:01.256Z,99944.81
2019-05-05T00:31:36.750Z,99948.91
2019-05-05T00:33:14.360Z,99955.74
2019-05-05T00:34:49.473Z,99960.90
2019-05-05T00:36:24.967Z,99964.72
2019-05-05T00:38:01.088Z,99967.97
2019-05-05T00:39:36.599Z,99968.81
2019-05-05T00:41:12.199Z,99964.09
2019-05-05T00:42:47.710Z,99967.38
2019-05-05T00:44:24.715Z,99979.67
2019-05-05T00:46:04.654Z,99980.18
2019-05-05T00:47:51.930Z,99974.94
2019-05-05T00:49:45.691Z,99989.97
2019-05-05T00:51:09.300Z,99981.92
2019-05-05T00:52:45.808Z,99980.79
2019-05-05T00:54:21.321Z,99988.13
2019-05-05T00:55:56.832Z,99981.30
2019-05-05T00:57:32.344Z,99982.35
2019-05-05T00:59:15.238Z,99985.39
2019-05-05T01:00:58.407Z,99985.09
2019-05-05T01:02:35.884Z,99988.91
2019-05-05T01:04:14.496Z,99992.92
2019-05-05T01:05:51.751Z,99995.34
2019-05-05T01:07:27.267Z,100001.34
2019-05-05T01:09:04.428Z,100007.32
2019-05-05T01:10:41.559Z,100008.69
2019-05-05T01:12:17.147Z,100015.20
2019-05-05T01:13:54.568Z,100010.82
2019-05-05T01:15:30.433Z,100018.47
2019-05-05T01:17:05.932Z,100019.30
2019-05-05T01:18:41.496Z,100018.79
2019-05-05T01:20:17.564Z,100018.79
2019-05-05T01:21:54.405Z,100020.16
2019-05-05T01:23:30.118Z,100019.61
2019-05-05T01:25:08.278Z,100024.77
2019-05-05T01:26:44.619Z,100017.42
2019-05-05T01:28:20.595Z,100023.39
2019-05-05T01:29:56.212Z,100029.72
2019-05-05T01:31:31.733Z,100030.23
2019-05-05T01:33:19.171Z,100036.55
2019-05-05T01:34:55.025Z,100041.16
2019-05-05T01:36:30.914Z,100042.44
2019-05-05T01:38:10.663Z,100043.30
2019-05-05T01:39:54.271Z,100047.08
2019-05-05T01:41:34.959Z,100043.80
2019-05-05T01:43:10.490Z,100050.03
2019-05-05T01:44:46.603Z,100044.80
2019-05-05T01:46:22.113Z,100048.36
2019-05-05T01:47:57.647Z,100047.30
2019-05-05T01:49:34.520Z,100042.34
2019-05-05T01:51:10.194Z,100048.67
2019-05-05T01:52:46.331Z,100043.52
2019-05-05T01:54:21.857Z,100050.34
2019-05-05T01:55:58.670Z,100047.30
2019-05-05T01:57:34.542Z,100057.17
2019-05-05T01:59:10.242Z,100056.32
2019-05-05T02:00:46.513Z,100060.11
2019-05-05T02:02:22.024Z,100060.19
2019-05-05T02:03:57.638Z,100061.88
2019-05-05T02:05:34.838Z,100060.19
2019-05-05T02:07:10.520Z,100058.31
2019-05-05T02:08:46.586Z,100062.09
2019-05-05T02:10:25.275Z,100058.31
2019-05-05T02:12:00.281Z,100067.87
2019-05-05T02:13:35.788Z,100073.03
2019-05-05T02:15:12.156Z,100084.78
2019-05-05T02:16:47.670Z,100082.67
2019-05-05T02:18:25.222Z,100076.90
2019-05-05T02:20:00.396Z,100076.90
2019-05-05T02:21:35.933Z,100079.62
2019-05-05T02:23:15.072Z,100080.48
2019-05-05T02:24:50.336Z,100083.22
2019-05-05T02:26:25.845Z,100091.41
2019-05-05T02:28:01.354Z,100094.97
2019-05-05T02:29:38.498Z,100091.41
2019-05-05T02:31:16.620Z,100097.16
2019-05-05T02:32:56.998Z,100097.39
2019-05-05T02:34:35.913Z,100108.31
2019-05-05T02:36:11.362Z,100108.86
2019-05-05T02:37:47.771Z,100114.00
2019-05-05T02:39:24.262Z,100119.23
2019-05-05T02:41:00.312Z,100123.34
2019-05-05T02:42:35.840Z,100126.92
2019-05-05T02:44:15.216Z,100121.46
2019-05-05T02:46:19.140Z,100124.20
2019-05-05T02:48:00.663Z,100126.92
2019-05-05T02:49:36.728Z,100128.11
2019-05-05T02:51:15.074Z,100127.80
2019-05-05T02:52:50.959Z,100129.67
2019-05-05T02:54:26.708Z,100127.48
2019-05-05T02:56:06.430Z,100126.75
2019-05-05T02:57:43.941Z,100133.27
2019-05-05T02:59:24.774Z,100139.78
2019-05-05T03:01:05.857Z,100142.83
2019-05-05T03:02:43.306Z,100141.14
2019-05-05T03:04:20.074Z,100151.53
2019-05-05T03:05:56.294Z,100158.90
2019-05-05T03:07:34.415Z,100159.95
2019-05-05T03:09:09.937Z,100168.91
2019-05-05T03:10:45.788Z,100165.32
2019-05-05T03:12:24.311Z,100168.27
2019-05-05T03:14:03.957Z,100168.81
2019-05-05T03:15:51.753Z,100161.36
2019-05-05T03:17:27.926Z,100148.43
2019-05-05T03:19:03.647Z,100143.73
2019-05-05T03:20:39.309Z,100143.96
2019-05-05T03:22:16.462Z,100147.73
2019-05-05T03:23:52.043Z,100156.98
2019-05-05T03:25:27.620Z,100168.67
2019-05-05T03:27:03.899Z,100182.83
2019-05-05T03:28:41.339Z,100184.73
2019-05-05T03:30:17.093Z,100186.92
2019-05-05T03:31:55.926Z,100186.61
2019-05-05T03:33:30.147Z,100181.16
2019-05-05T03:35:06.187Z,100184.11
2019-05-05T03:36:44.134Z,100190.93
2019-05-05T03:38:20.078Z,100196.17
2019-05-05T03:39:57.398Z,100198.61
2019-05-05T03:41:40.782Z,100195.34
2019-05-05T03:43:26.495Z,100195.34
2019-05-05T03:45:07.654Z,100192.30
2019-05-05T03:46:43.866Z,100196.08
2019-05-05T03:48:21.517Z,100193.06
2019-05-05T03:49:57.480Z,100201.25
2019-05-05T03:51:34.484Z,100204.27
2019-05-05T03:53:10.210Z,100204.59
2019-05-05T03:54:45.864Z,100213.09
2019-05-05T03:56:21.699Z,100208.77
2019-05-05T03:57:57.222Z,100209.41
2019-05-05T03:59:33.561Z,100208.88
2019-05-05T04:01:38.530Z,100208.97
2019-05-05T04:03:14.685Z,100211.47
2019-05-05T04:04:55.035Z,100209.41
2019-05-05T04:06:38.246Z,100211.09
2019-05-05T04:08:14.508Z,100208.97
2019-05-05T04:09:50.329Z,100206.77
2019-05-05T04:11:25.905Z,100209.60
2019-05-05T04:13:04.502Z,100202.55
2019-05-05T04:14:40.487Z,100214.39
2019-05-05T04:16:17.641Z,100210.07
2019-05-05T04:17:55.385Z,100215.12
2019-05-05T04:19:34.275Z,100219.31
2019-05-05T04:21:09.953Z,100216.13
2019-05-05T04:22:45.469Z,100219.81
2019-05-05T04:24:20.981Z,100222.09
2019-05-05T04:25:56.748Z,100222.50
2019-05-05T04:27:34.268Z,100225.61
2019-05-05T04:29:09.935Z,100222.78
2019-05-05T04:30:45.484Z,100225.61
2019-05-05T04:32:20.997Z,100225.47
2019-05-05T04:33:56.510Z,100223.14
2019-05-05T04:35:33.957Z,100223.30
2019-05-05T04:37:09.637Z,100224.84
2019-05-05T04:38:45.156Z,100226.10
2019-05-05T04:40:20.744Z,100227.10
2019-05-05T04:41:56.513Z,100226.73
2019-05-05T04:43:33.799Z,100228.81
2019-05-05T04:45:10.234Z,100221.30
2019-05-05T04:46:47.388Z,100226.66
2019-05-05T04:48:24.561Z,100232.81
2019-05-05T04:50:07.560Z,100231.30
2019-05-05T04:51:49.446Z,100239.17
2019-05-05T04:53:24.191Z,100237.89
2019-05-05T04:54:59.741Z,100235.83
2019-05-05T04:56:35.425Z,100242.84
2019-05-05T04:58:10.949Z,100237.54
2019-05-05T04:59:47.749Z,100241.58
2019-05-05T05:01:24.167Z,100240.69
2019-05-05T05:03:01.609Z,100241.59
2019-05-05T05:04:38.737Z,100241.25
2019-05-05T05:06:15.889Z,100244.89
2019-05-05T05:07:51.404Z,100247.16
2019-05-05T05:09:26.983Z,100247.79
2019-05-05T05:11:03.635Z,100247.64
2019-05-05T05:12:40.307Z,100248.66
2019-05-05T05:14:15.835Z,100252.61
2019-05-05T05:15:51.332Z,100257.70
2019-05-05T05:17:28.758Z,100260.83
2019-05-05T05:19:04.637Z,100261.50
2019-05-05T05:20:40.172Z,100258.64
2019-05-05T05:22:16.749Z,100259.88
2019-05-05T05:23:53.642Z,100263.52
2019-05-05T05:25:29.269Z,100264.23
2019-05-05T05:27:05.160Z,100270.38
2019-05-05T05:28:40.786Z,100263.44
2019-05-05T05:30:16.373Z,100270.83
2019-05-05T05:31:53.494Z,100268.93
2019-05-05T05:33:29.130Z,100270.13
2019-05-05T05:35:06.452Z,100270.25
2019-05-05T05:36:41.950Z,100264.95
2019-05-05T05:38:19.349Z,100274.17
2019-05-05T05:40:03.941Z,100275.50
2019-05-05T05:41:43.604Z,100282.75
2019-05-05T05:43:36.039Z,100278.22
2019-05-05T05:45:14.650Z,100278.11
2019-05-05T05:46:58.004Z,100286.86
2019-05-05T05:48:43.350Z,100289.00
2019-05-05T05:50:24.431Z,100291.34
2019-05-05T05:52:12.533Z,100296.09
2019-05-05T05:53:37.610Z,100293.88
2019-05-05T05:55:14.556Z,100289.76
2019-05-05T05:56:53.821Z,100295.86
2019-05-05T05:58:29.472Z,100303.33
2019-05-05T06:00:08.260Z,100302.50
2019-05-05T06:01:45.050Z,100291.80
2019-05-05T06:03:20.565Z,100305.13
2019-05-05T06:04:56.084Z,100295.50
2019-05-05T06:06:31.643Z,100302.14
2019-05-05T06:08:07.238Z,100297.70
2019-05-05T06:09:43.762Z,100302.64
2019-05-05T06:11:19.467Z,100302.84
2019-05-05T06:12:54.993Z,100306.02
2019-05-05T06:14:30.523Z,100308.37
2019-05-05T06:16:06.047Z,100310.48
2019-05-05T06:17:43.522Z,100309.51
2019-05-05T06:19:19.219Z,100320.92
2019-05-05T06:20:54.761Z,100321.87
2019-05-05T06:22:31.610Z,100325.00
2019-05-05T06:24:07.892Z,100330.64
2019-05-05T06:25:44.543Z,100331.31
2019-05-05T06:27:20.521Z,100337.50
2019-05-05T06:28:56.098Z,100338.69
2019-05-05T06:30:33.493Z,100337.12
2019-05-05T06:32:08.857Z,100333.38
2019-05-05T06:33:44.375Z,100335.39
2019-05-05T06:35:19.956Z,100340.97
2019-05-05T06:36:55.788Z,100340.48
2019-05-05T06:38:31.315Z,100341.38
2019-05-05T06:40:09.945Z,100342.82
2019-05-05T06:41:59.288Z,100343.16
2019-05-05T06:43:54.322Z,100341.53
2019-05-05T06:45:31.668Z,100334.63
2019-05-05T06:47:14.900Z,100337.98
2019-05-05T06:48:50.427Z,100338.57
2019-05-05T06:50:26.343Z,100333.57
2019-05-05T06:52:03.857Z,100327.75
2019-05-05T06:53:39.417Z,100323.30
2019-05-05T06:55:14.927Z,100332.17
2019-05-05T06:56:50.461Z,100336.56
2019-05-05T06:58:25.968Z,100329.05
2019-05-05T07:00:03.504Z,100326.53
2019-05-05T07:01:38.990Z,100335.66
2019-05-05T07:03:14.511Z,100331.98
2019-05-05T07:04:50.029Z,100333.03
2019-05-05T07:06:25.571Z,100331.58
2019-05-05T07:08:01.438Z,100338.75
2019-05-05T07:09:36.949Z,100337.53
2019-05-05T07:11:14.337Z,100340.50
2019-05-05T07:12:50.005Z,100339.63
2019-05-05T07:14:25.523Z,100336.45
2019-05-05T07:16:01.656Z,100337.98
2019-05-05T07:17:37.548Z,100339.27
2019-05-05T07:19:14.708Z,100336.36
2019-05-05T07:20:50.790Z,100335.66
2019-05-05T07:22:26.313Z,100337.49
2019-05-05T07:24:03.844Z,100337.36
2019-05-05T07:25:42.963Z,100339.42
2019-05-05T07:27:16.397Z,100339.57
2019-05-05T07:28:54.058Z,100344.74
2019-05-05T07:30:29.303Z,100349.34
2019-05-05T07:32:04.851Z,100358.14
2019-05-05T07:33:40.372Z,100358.89
2019-05-05T07:35:17.685Z,100361.58
2019-05-05T07:36:54.808Z,100360.92
2019-05-05T07:38:30.496Z,100363.88
2019-05-05T07:40:08.330Z,100362.17
2019-05-05T07:41:44.748Z,100377.78
2019-05-05T07:43:20.867Z,100372.25
2019-05-05T07:44:56.637Z,100373.70
2019-05-05T07:46:34.639Z,100376.80
2019-05-05T07:48:10.413Z,100379.94
2019-05-05T07:49:46.329Z,100373.06
2019-05-05T07:51:24.123Z,100367.02
2019-05-05T07:53:13.867Z,100367.08
2019-05-05T07:54:39.528Z,100364.30
2019-05-05T07:56:15.080Z,100362.84
2019-05-05T07:57:50.951Z,100359.44
2019-05-05T07:59:26.472Z,100359.70
2019-05-05T08:01:04.960Z,100357.77
2019-05-05T08:02:40.474Z,100354.64
2019-05-05T08:04:16.009Z,100352.87
2019-05-05T08:05:51.580Z,100351.95
2019-05-05T08:07:27.310Z,100356.87
2019-05-05T08:09:05.856Z,100361.63
2019-05-05T08:10:43.556Z,100362.22
2019-05-05T08:12:18.687Z,100366.47
2019-05-05T08:13:54.804Z,100359.73
2019-05-05T08:15:34.347Z,100370.23
2019-05-05T08:17:11.602Z,100368.38
2019-05-05T08:19:04.860Z,100366.55
2019-05-05T08:20:44.167Z,100370.39
2019-05-05T08:22:23.645Z,100369.22
2019-05-05T08:24:04.544Z,100371.63
2019-05-05T08:25:40.271Z,100372.58
2019-05-05T08:27:20.818Z,100369.71
2019-05-05T08:28:56.552Z,100371.92
2019-05-05T08:30:33.898Z,100373.20
2019-05-05T08:32:32.617Z,100375.89
2019-05-05T08:34:06.696Z,100376.36
2019-05-05T08:35:42.201Z,100378.02
2019-05-05T08:37:17.729Z,100376.70
2019-05-05T08:38:54.605Z,100385.48
2019-05-05T08:40:30.193Z,100382.52
2019-05-05T08:42:05.972Z,100384.59
2019-05-05T08:43:41.512Z,100387.92
2019-05-05T08:45:17.490Z,100388.23
2019-05-05T08:46:53.753Z,100391.31
2019-05-05T08:48:29.475Z,100390.23
2019-05-05T08:50:07.609Z,100384.59
2019-05-05T08:51:44.271Z,100381.46
2019-05-05T08:53:24.413Z,100394.41
2019-05-05T08:55:00.796Z,100396.65
2019-05-05T08:56:36.987Z,100392.02
2019-05-05T08:58:14.621Z,100390.66
2019-05-05T08:59:49.844Z,100387.18
2019-05-05T09:01:25.970Z,100390.70
2019-05-05T09:03:03.561Z,100388.63
2019-05-05T09:04:38.713Z,100388.81
2019-05-05T09:06:14.341Z,100389.08
2019-05-05T09:07:50.004Z,100391.30
2019-05-05T09:09:25.533Z,100388.75
2019-05-05T09:11:01.329Z,100388.95
2019-05-05T09:12:38.005Z,100393.55
2019-05-05T09:14:14.986Z,100385.30
2019-05-05T09:15:50.664Z,100400.50
2019-05-05T09:17:28.101Z,100399.34
2019-05-05T09:19:07.717Z,100394.56
2019-05-05T09:20:44.583Z,100396.19
2019-05-05T09:22:20.350Z,100398.66
2019-05-05T09:24:05.237Z,100405.13
2019-05-05T09:25:41.843Z,100392.02
2019-05-05T09:27:17.134Z,100391.06
2019-05-05T09:28:54.400Z,100394.97
2019-05-05T09:30:40.532Z,100390.30
2019-05-05T09:32:16.068Z,100390.87
2019-05-05T09:33:53.498Z,100387.89
2019-05-05T09:35:28.817Z,100388.72
2019-05-05T09:37:05.403Z,100396.17
2019-05-05T09:38:40.992Z,100400.44
2019-05-05T09:40:21.493Z,100393.95
2019-05-05T09:41:57.044Z,100397.64
2019-05-05T09:43:34.503Z,100400.25
2019-05-05T09:45:11.002Z,100405.49
2019-05-05T09:46:46.524Z,100400.29
2019-05-05T09:48:24.132Z,100405.03
2019-05-05T09:49:59.446Z,100399.49
2019-05-05T09:51:35.091Z,100402.82
2019-05-05T09:53:10.621Z,100404.89
2019-05-05T09:54:46.161Z,100403.39
2019-05-05T09:56:23.625Z,100406.69
2019-05-05T09:57:58.911Z,100407.78
2019-05-05T09:59:34.823Z,100413.38
2019-05-05T10:01:10.761Z,100411.08
2019-05-05T10:02:46.354Z,100414.06
2019-05-05T10:04:24.310Z,100414.80
2019-05-05T10:05:59.944Z,100415.80
2019-05-05T10:07:35.455Z,100411.43
2019-05-05T10:09:15.535Z,100415.88
2019-05-05T10:10:51.694Z,100414.38
2019-05-05T10:12:29.064Z,100407.98
2019-05-05T10:14:10.156Z,100409.29
2019-05-05T10:15:46.094Z,100417.01
2019-05-05T10:17:25.136Z,100408.59
2019-05-05T10:19:01.549Z,100408.75
2019-05-05T10:20:37.477Z,100421.33
2019-05-05T10:22:14.798Z,100417.41
2019-05-05T10:23:54.087Z,100419.64
2019-05-05T10:25:37.816Z,100414.86
2019-05-05T10:27:15.639Z,100410.94
2019-05-05T10:28:53.608Z,100410.48
2019-05-05T10:30:28.873Z,100409.02
2019-05-05T10:32:04.749Z,100406.92
2019-05-05T10:33:41.993Z,100415.11
2019-05-05T10:35:17.642Z,100412.92
2019-05-05T10:36:53.630Z,100408.27
2019-05-05T10:38:29.511Z,100407.80
2019-05-05T10:40:09.508Z,100407.87
2019-05-05T10:41:45.486Z,100399.92
2019-05-05T10:43:21.010Z,100405.79
2019-05-05T10:44:56.529Z,100409.56
2019-05-05T10:46:33.989Z,100409.10
2019-05-05T10:48:10.234Z,100404.14
2019-05-05T10:49:47.088Z,100404.12
2019-05-05T10:51:23.771Z,100404.02
2019-05-05T10:52:59.337Z,100396.64
2019-05-05T10:54:44.173Z,100400.03
2019-05-05T10:56:13.651Z,100404.25
2019-05-05T10:57:49.389Z,100403.80
2019-05-05T10:59:24.896Z,100411.11
2019-05-05T11:01:01.422Z,100402.26
2019-05-05T11:02:37.326Z,100401.14
2019-05-05T11:04:13.628Z,100407.99
2019-05-05T11:05:50.284Z,100407.23
2019-05-05T11:07:26.063Z,100400.48
2019-05-05T11:09:01.951Z,100400.97
2019-05-05T11:10:38.891Z,100405.83
2019-05-05T11:12:14.511Z,100406.95
2019-05-05T11:13:50.028Z,100398.84
2019-05-05T11:15:25.560Z,100400.97
2019-05-05T11:17:03.923Z,100404.22
2019-05-05T11:18:38.923Z,100397.66
2019-05-05T11:20:14.745Z,100400.56
2019-05-05T11:21:50.298Z,100400.16
2019-05-05T11:23:25.826Z,100395.52
2019-05-05T11:25:01.490Z,100399.73
2019-05-05T11:26:36.959Z,100393.20
2019-05-05T11:28:12.513Z,100395.11
2019-05-05T11:30:05.616Z,100394.88
2019-05-05T11:31:41.224Z,100393.58
2019-05-05T11:33:21.110Z,100386.80
2019-05-05T11:34:56.689Z,100385.02
2019-05-05T11:36:34.614Z,100383.51
2019-05-05T11:38:10.223Z,100389.86
2019-05-05T11:39:45.749Z,100379.52
2019-05-05T11:41:21.280Z,100374.53
2019-05-05T11:42:56.885Z,100372.12
2019-05-05T11:44:33.551Z,100370.52
2019-05-05T11:46:09.508Z,100373.30
2019-05-05T11:47:45.032Z,100373.57
2019-05-05T11:49:20.570Z,100373.72
2019-05-05T11:50:56.086Z,100369.29
2019-05-05T11:52:33.618Z,100371.86
2019-05-05T11:54:09.254Z,100367.09
2019-05-05T11:55:44.817Z,100372.18
2019-05-05T11:57:20.417Z,100371.09
2019-05-05T11:58:55.955Z,100373.17
2019-05-05T12:00:32.001Z,100381.51
2019-05-05T12:02:08.118Z,100371.77
2019-05-05T12:03:44.475Z,100380.33
2019-05-05T12:05:20.890Z,100374.72
2019-05-05T12:06:56.417Z,100368.61
2019-05-05T12:08:31.964Z,100365.03
2019-05-05T12:10:09.269Z,100374.09
2019-05-05T12:11:45.773Z,100371.95
2019-05-05T12:13:22.702Z,100379.08
2019-05-05T12:14:58.233Z,100371.20
2019-05-05T12:16:34.734Z,100385.06
2019-05-05T12:18:10.384Z,100388.73
2019-05-05T12:19:48.432Z,100383.67
2019-05-05T12:21:24.269Z,100390.16
2019-05-05T12:22:59.881Z,100384.44
2019-05-05T12:24:37.065Z,100391.08
2019-05-05T12:26:13.731Z,100387.94
2019-05-05T12:27:59.925Z,100390.85
2019-05-05T12:29:36.363Z,100391.55
2019-05-05T12:31:25.812Z,100395.52
2019-05-05T12:33:01.595Z,100395.22
2019-05-05T12:34:37.122Z,100394.41
2019-05-05T12:36:14.907Z,100394.27
2019-05-05T12:37:51.496Z,100387.45
2019-05-05T12:39:27.282Z,100390.19
2019-05-05T12:41:04.308Z,100388.98
2019-05-05T12:42:39.999Z,100392.48
2019-05-05T12:44:17.206Z,100393.24
2019-05-05T12:45:55.172Z,100394.67
2019-05-05T12:47:34.984Z,100396.35
2019-05-05T12:49:13.902Z,100398.39
2019-05-05T12:50:49.575Z,100402.55
2019-05-05T12:52:25.102Z,100396.07
2019-05-05T12:54:00.633Z,100385.14
2019-05-05T12:55:41.376Z,100388.34
2019-05-05T12:57:13.731Z,100385.02
2019-05-05T12:58:49.295Z,100391.66
2019-05-05T13:00:25.675Z,100395.12
2019-05-05T13:02:01.247Z,100393.78
2019-05-05T13:03:37.017Z,100393.13
2019-05-05T13:05:14.486Z,100393.70
2019-05-05T13:06:51.108Z,100393.16
2019-05-05T13:08:28.295Z,100394.73
2019-05-05T13:10:06.068Z,100391.88
2019-05-05T13:11:43.486Z,100388.47
2019-05-05T13:13:20.044Z,100389.27
2019-05-05T13:14:55.564Z,100390.84
2019-05-05T13:16:31.077Z,100395.27
2019-05-05T13:18:06.688Z,100392.24
2019-05-05T13:19:47.557Z,100395.84
2019-05-05T13:21:41.067Z,100400.64
2019-05-05T13:23:24.051Z,100402.64
2019-05-05T13:25:01.500Z,100396.56
2019-05-05T13:26:45.529Z,100402.45
2019-05-05T13:28:21.034Z,100393.83
2019-05-05T13:29:56.578Z,100400.84
2019-05-05T13:31:33.777Z,100399.44
2019-05-05T13:33:09.408Z,100399.04
2019-05-05T13:34:45.224Z,100394.17
2019-05-05T13:36:20.734Z,100392.89
2019-05-05T13:37:56.317Z,100396.05
2019-05-05T13:39:33.911Z,100405.80
2019-05-05T13:41:09.193Z,100398.02
2019-05-05T13:42:44.716Z,100400.83
2019-05-05T13:44:24.125Z,100405.34
2019-05-05T13:46:00.917Z,100398.44
2019-05-05T13:47:36.403Z,100397.11
2019-05-05T13:49:19.274Z,100400.17
2019-05-05T13:50:57.304Z,100399.26
2019-05-05T13:52:33.713Z,100394.78
2019-05-05T13:54:10.511Z,100392.41
2019-05-05T13:55:46.285Z,100394.72
2019-05-05T13:57:21.803Z,100390.91
2019-05-05T13:58:57.797Z,100391.50
2019-05-05T14:00:33.865Z,100384.41
2019-05-05T14:02:09.466Z,100377.67
2019-05-05T14:03:45.253Z,100386.00
2019-05-05T14:05:20.782Z,100393.20
2019-05-05T14:06:57.072Z,100392.98
2019-05-05T14:08:36.057Z,100394.22
2019-05-05T14:10:09.947Z,100393.82
2019-05-05T14:11:45.529Z,100386.15
2019-05-05T14:13:21.054Z,100389.97
2019-05-05T14:14:57.549Z,100384.28
2019-05-05T14:16:34.055Z,100386.99
2019-05-05T14:18:10.699Z,100392.53
2019-05-05T14:19:46.251Z,100394.15
2019-05-05T14:21:21.763Z,100392.93
2019-05-05T14:22:58.419Z,100397.56
2019-05-05T14:24:36.255Z,100396.62
2019-05-05T14:26:22.883Z,100400.95
2019-05-05T14:27:49.232Z,100411.09
2019-05-05T14:29:43.036Z,100411.73
2019-05-05T14:31:25.716Z,100408.23
2019-05-05T14:33:03.653Z,100410.53
2019-05-05T14:34:46.273Z,100415.33
2019-05-05T14:36:28.662Z,100411.48
2019-05-05T14:38:23.581Z,100415.64
2019-05-05T14:39:59.185Z,100423.16
2019-05-05T14:41:35.234Z,100424.25
2019-05-05T14:43:10.819Z,100416.21
2019-05-05T14:44:46.596Z,100418.72
2019-05-05T14:46:23.514Z,100419.81
2019-05-05T14:47:59.393Z,100420.61
2019-05-05T14:49:34.914Z,100417.02
2019-05-05T14:51:10.507Z,100417.82
2019-05-05T14:52:46.031Z,100411.73
2019-05-05T14:54:21.574Z,100412.02
2019-05-05T14:55:57.116Z,100413.94
2019-05-05T14:57:33.643Z,100410.06
2019-05-05T14:59:09.244Z,100410.35
2019-05-05T15:00:44.789Z,100406.48
2019-05-05T15:02:20.476Z,100406.74
2019-05-05T15:03:56.248Z,100412.02
2019-05-05T15:05:36.323Z,100404.56
2019-05-05T15:07:11.658Z,100402.62
2019-05-05T15:08:48.822Z,100398.47
2019-05-05T15:10:43.952Z,100402.34
2019-05-05T15:12:39.017Z,100392.64
2019-05-05T15:14:14.550Z,100394.31
2019-05-05T15:15:50.078Z,100379.62
2019-05-05T15:17:25.659Z,100388.48
2019-05-05T15:19:03.758Z,100390.68
2019-05-05T15:20:38.665Z,100391.25
2019-05-05T15:22:15.148Z,100391.53
2019-05-05T15:23:50.772Z,100393.74
2019-05-05T15:25:26.529Z,100391.81
2019-05-05T15:27:02.104Z,100391.25
2019-05-05T15:28:37.625Z,100391.81
2019-05-05T15:30:13.470Z,100396.23
2019-05-05T15:31:49.037Z,100391.53
2019-05-05T15:33:24.556Z,100388.75
2019-05-05T15:35:00.085Z,100391.24
2019-05-05T15:36:35.595Z,100384.58
2019-05-05T15:38:11.399Z,100384.58
2019-05-05T15:39:47.098Z,100389.55
2019-05-05T15:41:23.655Z,100386.77
2019-05-05T15:42:59.223Z,100389.55
2019-05-05T15:44:35.696Z,100391.75
2019-05-05T15:46:11.218Z,100385.10
2019-05-05T15:47:46.782Z,100391.22
2019-05-05T15:49:22.297Z,100388.44
2019-05-05T15:50:57.812Z,100384.81
2019-05-05T15:52:35.102Z,100389.00
2019-05-05T15:54:10.570Z,100385.12
2019-05-05T15:55:46.580Z,100383.72
2019-05-05T15:57:23.984Z,100382.62
2019-05-05T15:58:59.308Z,100380.95
2019-05-05T16:00:34.869Z,100380.93
2019-05-05T16:02:10.404Z,100388.98
2019-05-05T16:03:45.982Z,100394.01
2019-05-05T16:05:21.570Z,100397.89
2019-05-05T16:06:57.162Z,100401.78
2019-05-05T16:08:34.025Z,100404.02
2019-05-05T16:10:10.789Z,100396.80
2019-05-05T16:11:46.824Z,100405.40
2019-05-05T16:13:22.452Z,100400.67
2019-05-05T16:15:05.030Z,100394.88
2019-05-05T16:16:45.180Z,100394.87
2019-05-05T16:18:31.666Z,100402.08
2019-05-05T16:20:15.283Z,100397.06
2019-05-05T16:21:54.259Z,100402.59
2019-05-05T16:23:35.956Z,100392.88
2019-05-05T16:25:14.032Z,100398.17
2019-05-05T16:26:50.849Z,100394.00
2019-05-05T16:28:26.357Z,100396.48
2019-05-05T16:30:05.632Z,100397.01
2019-05-05T16:31:39.152Z,100398.42
2019-05-05T16:33:14.684Z,100400.62
2019-05-05T16:34:50.199Z,100396.70
2019-05-05T16:36:25.727Z,100397.80
2019-05-05T16:38:01.251Z,100399.73
2019-05-05T16:39:36.765Z,100402.50
2019-05-05T16:41:15.082Z,100399.15
2019-05-05T16:42:49.837Z,100398.86
2019-05-05T16:44:25.423Z,100396.36
2019-05-05T16:46:00.984Z,100394.67
2019-05-05T16:47:36.919Z,100396.91
2019-05-05T16:49:14.029Z,100395.51
2019-05-05T16:50:49.556Z,100393.54
2019-05-05T16:52:26.980Z,100396.58
2019-05-05T16:54:04.686Z,100393.80
2019-05-05T16:55:48.189Z,100394.06
2019-05-05T16:57:33.755Z,100396.27
2019-05-05T16:59:01.886Z,100398.48
2019-05-05T17:00:38.387Z,100398.47
2019-05-05T17:02:14.007Z,100395.42
2019-05-05T17:03:49.792Z,100393.75
2019-05-05T17:05:25.313Z,100393.20
2019-05-05T17:07:00.859Z,100397.35
2019-05-05T17:08:36.359Z,100395.41
2019-05-05T17:10:13.843Z,100398.73
2019-05-05T17:11:51.141Z,100397.34
2019-05-05T17:13:31.272Z,100398.16
2019-05-05T17:15:07.201Z,100399.25
2019-05-05T17:16:50.067Z,100398.15
2019-05-05T17:18:35.225Z,100400.35
2019-05-05T17:20:08.220Z,100399.81
2019-05-05T17:21:53.612Z,100406.44
2019-05-05T17:23:29.429Z,100395.64
2019-05-05T17:25:07.560Z,100398.69
2019-05-05T17:26:43.900Z,100400.60
2019-05-05T17:28:19.633Z,100403.37
2019-05-05T17:29:55.154Z,100404.50
2019-05-05T17:31:30.682Z,100408.91
2019-05-05T17:33:06.213Z,100407.27
2019-05-05T17:34:41.723Z,100405.88
2019-05-05T17:36:17.514Z,100405.30
2019-05-05T17:37:53.841Z,100407.51
2019-05-05T17:39:31.382Z,100406.69
2019-05-05T17:41:10.988Z,100411.95
2019-05-05T17:42:48.265Z,100405.03
2019-05-05T17:44:33.578Z,100409.75
2019-05-05T17:46:24.126Z,100400.59
2019-05-05T17:48:04.445Z,100403.91
2019-05-05T17:49:54.214Z,100405.85
2019-05-05T17:51:34.241Z,100408.62
2019-05-05T17:53:11.419Z,100407.48
2019-05-05T17:54:48.588Z,100411.62
2019-05-05T17:56:24.371Z,100410.23
2019-05-05T17:58:02.527Z,100407.73
2019-05-05T17:59:37.203Z,100410.22
2019-05-05T18:01:12.725Z,100405.52
2019-05-05T18:02:48.243Z,100407.17
2019-05-05T18:04:23.842Z,100408.54
2019-05-05T18:06:10.181Z,100408.25
2019-05-05T18:07:47.555Z,100404.61
2019-05-05T18:09:34.428Z,100410.97
2019-05-05T18:11:13.528Z,100406.52
2019-05-05T18:13:03.638Z,100410.63
2019-05-05T18:14:40.989Z,100406.44
2019-05-05T18:16:19.138Z,100415.27
2019-05-05T18:17:56.875Z,100412.75
2019-05-05T18:19:34.001Z,100417.38
2019-05-05T18:21:09.649Z,100414.33
2019-05-05T18:22:45.165Z,100425.08
2019-05-05T18:24:20.737Z,100422.30
2019-05-05T18:25:57.546Z,100422.80
2019-05-05T18:27:34.463Z,100416.42
2019-05-05T18:29:10.462Z,100416.67
2019-05-05T18:30:45.976Z,100425.77
2019-05-05T18:32:23.441Z,100422.42
2019-05-05T18:34:00.387Z,100426.55